createdAt,value
2023-02-15T00:01:47.041Z,7.77
2023-02-15T00:04:16.962Z,7.98
2023-02-15T00:06:45.102Z,8.04
2023-02-15T00:09:14.361Z,7.82
2023-02-15T00:11:43.799Z,7.92
2023-02-15T00:14:14.473Z,7.75
2023-02-15T00:16:44.607Z,7.62
2023-02-15T00:19:15.201Z,7.56
2023-02-15T00:21:43.641Z,7.63
2023-02-15T00:24:14.024Z,7.75
2023-02-15T00:26:43.709Z,7.84
2023-02-15T00:29:13.771Z,8.04
2023-02-15T00:31:42.002Z,7.72
2023-02-15T00:34:16.402Z,7.86
2023-02-15T00:36:45.673Z,7.98
2023-02-15T00:39:14.901Z,8.10
2023-02-15T00:41:43.500Z,8.17
2023-02-15T00:44:12.729Z,8.16
2023-02-15T00:46:41.194Z,8.14
2023-02-15T00:49:09.826Z,8.20
2023-02-15T00:51:40.761Z,8.18
2023-02-15T00:54:09.021Z,7.90
2023-02-15T00:56:37.487Z,8.04
2023-02-15T00:59:05.840Z,7.90
2023-02-15T01:01:34.056Z,7.67
2023-02-15T01:04:02.291Z,7.81
2023-02-15T01:06:30.818Z,8.08
2023-02-15T01:09:00.777Z,7.87
2023-02-15T01:11:29.025Z,7.35
2023-02-15T01:14:00.007Z,7.98
2023-02-15T01:16:30.427Z,7.87
2023-02-15T01:18:59.482Z,8.09
2023-02-15T01:21:28.919Z,8.07
2023-02-15T01:23:57.147Z,8.06
2023-02-15T01:26:27.033Z,7.75
2023-02-15T01:28:55.279Z,7.91
2023-02-15T01:31:23.633Z,7.77
2023-02-15T01:33:52.090Z,7.80
2023-02-15T01:36:20.866Z,7.92
2023-02-15T01:38:50.383Z,7.93
2023-02-15T01:41:25.305Z,8.20
2023-02-15T01:43:57.333Z,8.06
2023-02-15T01:46:30.174Z,7.94
2023-02-15T01:49:04.968Z,7.95
2023-02-15T01:51:37.447Z,7.97
2023-02-15T01:54:12.093Z,7.86
2023-02-15T01:56:42.904Z,7.40
2023-02-15T01:59:21.529Z,7.59
2023-02-15T02:01:51.178Z,7.77
2023-02-15T02:04:25.561Z,7.75
2023-02-15T02:06:55.548Z,8.00
2023-02-15T02:09:24.038Z,8.00
2023-02-15T02:11:52.809Z,7.53
2023-02-15T02:14:23.652Z,7.67
2023-02-15T02:16:59.035Z,7.77
2023-02-15T02:19:56.831Z,7.99
2023-02-15T02:22:54.555Z,7.91
2023-02-15T02:26:02.670Z,7.96
2023-02-15T02:28:48.710Z,7.95
2023-02-15T02:31:41.978Z,7.94
2023-02-15T02:34:18.896Z,7.99
2023-02-15T02:36:55.132Z,7.96
2023-02-15T02:39:33.291Z,7.81
2023-02-15T02:42:08.989Z,7.82
2023-02-15T02:44:45.166Z,7.67
2023-02-15T02:47:21.143Z,7.72
2023-02-15T02:49:55.527Z,7.88
2023-02-15T02:52:44.772Z,7.82
2023-02-15T02:55:18.532Z,7.73
2023-02-15T02:57:54.146Z,7.75
2023-02-15T03:00:24.139Z,7.61
2023-02-15T03:02:59.669Z,7.66
2023-02-15T03:05:31.406Z,7.72
2023-02-15T03:08:02.302Z,7.78
2023-02-15T03:10:31.800Z,7.83
2023-02-15T03:13:00.381Z,7.98
2023-02-15T03:15:52.827Z,8.07
2023-02-15T03:18:25.055Z,8.05
2023-02-15T03:20:57.716Z,7.82
2023-02-15T03:23:30.070Z,7.64
2023-02-15T03:26:02.000Z,7.69
2023-02-15T03:28:35.854Z,7.89
2023-02-15T03:31:07.005Z,7.47
2023-02-15T03:33:37.340Z,7.67
2023-02-15T03:36:13.980Z,7.68
2023-02-15T03:38:50.057Z,7.71
2023-02-15T03:41:20.785Z,7.58
2023-02-15T03:43:54.375Z,7.64
2023-02-15T03:46:29.000Z,7.44
2023-02-15T03:49:02.616Z,7.71
2023-02-15T03:51:39.174Z,7.59
2023-02-15T03:54:10.332Z,7.65
2023-02-15T03:56:41.212Z,7.69
2023-02-15T03:59:27.164Z,7.76
2023-02-15T04:02:08.999Z,7.81
2023-02-15T04:04:39.462Z,7.74
2023-02-15T04:07:11.182Z,7.84
2023-02-15T04:09:56.845Z,7.68
2023-02-15T04:12:25.288Z,7.51
2023-02-15T04:15:10.727Z,7.70
2023-02-15T04:17:39.562Z,7.66
2023-02-15T04:20:26.904Z,7.52
2023-02-15T04:23:14.305Z,7.57
2023-02-15T04:25:42.506Z,7.65
2023-02-15T04:28:10.694Z,7.47
2023-02-15T04:30:38.881Z,7.45
2023-02-15T04:33:07.133Z,7.45
2023-02-15T04:35:36.427Z,7.52
2023-02-15T04:38:06.102Z,7.51
2023-02-15T04:40:34.388Z,7.59
2023-02-15T04:43:02.643Z,7.61
2023-02-15T04:45:31.089Z,7.77
2023-02-15T04:47:59.512Z,7.76
2023-02-15T04:50:27.694Z,7.82
2023-02-15T04:52:55.942Z,7.91
2023-02-15T04:55:25.636Z,7.88
2023-02-15T04:57:53.918Z,7.90
2023-02-15T05:00:22.487Z,7.76
2023-02-15T05:02:50.588Z,7.62
2023-02-15T05:05:19.174Z,7.61
2023-02-15T05:07:47.611Z,7.62
2023-02-15T05:10:16.066Z,7.67
2023-02-15T05:12:45.778Z,7.52
2023-02-15T05:15:14.727Z,7.52
2023-02-15T05:17:42.879Z,7.54
2023-02-15T05:20:12.519Z,7.62
2023-02-15T05:22:41.906Z,7.55
2023-02-15T05:25:28.882Z,7.47
2023-02-15T05:28:16.083Z,7.56
2023-02-15T05:30:44.396Z,7.61
2023-02-15T05:33:13.162Z,7.63
2023-02-15T05:35:41.761Z,7.53
2023-02-15T05:38:10.162Z,7.56
2023-02-15T05:40:38.401Z,7.50
2023-02-15T05:43:08.161Z,7.63
2023-02-15T05:45:36.375Z,7.57
2023-02-15T05:48:04.883Z,7.55
2023-02-15T05:50:33.486Z,7.62
2023-02-15T05:53:01.653Z,7.55
2023-02-15T05:55:30.171Z,7.45
2023-02-15T05:57:59.280Z,7.38
2023-02-15T06:00:28.854Z,7.26
2023-02-15T06:02:56.978Z,7.24
2023-02-15T06:05:26.841Z,7.28
2023-02-15T06:07:55.303Z,7.38
2023-02-15T06:10:23.837Z,7.36
2023-02-15T06:12:52.068Z,7.25
2023-02-15T06:15:20.439Z,7.09
2023-02-15T06:17:50.127Z,7.31
2023-02-15T06:20:18.775Z,7.41
2023-02-15T06:22:46.855Z,7.37
2023-02-15T06:25:15.189Z,7.44
2023-02-15T06:27:44.887Z,7.31
2023-02-15T06:30:14.537Z,7.26
2023-02-15T06:32:48.074Z,7.33
2023-02-15T06:35:18.010Z,7.09
2023-02-15T06:37:48.145Z,6.98
2023-02-15T06:40:16.630Z,7.09
2023-02-15T06:42:45.162Z,6.98
2023-02-15T06:45:13.930Z,6.95
2023-02-15T06:47:42.112Z,7.02
2023-02-15T06:50:11.403Z,7.05
2023-02-15T06:52:41.111Z,7.11
2023-02-15T06:55:09.687Z,7.18
2023-02-15T06:57:38.085Z,6.96
2023-02-15T07:00:08.038Z,7.01
2023-02-15T07:02:36.603Z,6.99
2023-02-15T07:05:06.278Z,6.87
2023-02-15T07:07:34.632Z,6.79
2023-02-15T07:10:04.545Z,7.02
2023-02-15T07:12:45.669Z,6.86
2023-02-15T07:15:19.347Z,6.76
2023-02-15T07:17:47.594Z,6.86
2023-02-15T07:20:20.931Z,6.86
2023-02-15T07:22:50.933Z,6.90
2023-02-15T07:25:21.062Z,7.10
2023-02-15T07:27:50.365Z,7.14
2023-02-15T07:30:20.019Z,7.01
2023-02-15T07:33:17.508Z,6.82
2023-02-15T07:35:50.757Z,6.81
2023-02-15T07:38:19.671Z,6.78
2023-02-15T07:40:49.975Z,6.84
2023-02-15T07:43:24.514Z,6.92
2023-02-15T07:45:52.864Z,6.93
2023-02-15T07:48:23.811Z,6.82
2023-02-15T07:50:53.350Z,6.83
2023-02-15T07:53:22.060Z,6.85
2023-02-15T07:55:53.493Z,6.85
2023-02-15T07:58:22.297Z,6.48
2023-02-15T08:01:01.856Z,6.92
2023-02-15T08:03:30.590Z,6.99
2023-02-15T08:06:00.999Z,7.04
2023-02-15T08:08:32.796Z,6.89
2023-02-15T08:11:22.879Z,7.10
2023-02-15T08:14:00.658Z,7.02
2023-02-15T08:16:32.050Z,7.17
2023-02-15T08:19:05.517Z,7.08
2023-02-15T08:21:35.569Z,7.15
2023-02-15T08:24:05.229Z,7.29
2023-02-15T08:26:35.803Z,7.33
2023-02-15T08:29:05.319Z,7.24
2023-02-15T08:31:34.259Z,7.30
2023-02-15T08:34:03.091Z,7.05
2023-02-15T08:36:33.980Z,7.19
2023-02-15T08:39:05.561Z,7.09
2023-02-15T08:41:38.107Z,6.97
2023-02-15T08:44:10.441Z,7.02
2023-02-15T08:46:40.200Z,7.22
2023-02-15T08:49:08.586Z,7.18
2023-02-15T08:51:40.661Z,7.11
2023-02-15T08:54:11.100Z,7.26
2023-02-15T08:56:44.483Z,7.28
2023-02-15T08:59:16.304Z,7.20
2023-02-15T09:01:47.992Z,7.09
2023-02-15T09:04:19.238Z,7.09
2023-02-15T09:06:53.873Z,7.15
2023-02-15T09:09:22.442Z,7.16
2023-02-15T09:11:59.100Z,7.26
2023-02-15T09:14:28.863Z,7.16
2023-02-15T09:16:57.252Z,7.20
2023-02-15T09:19:26.803Z,7.24
2023-02-15T09:21:55.267Z,7.18
2023-02-15T09:24:23.713Z,7.21
2023-02-15T09:26:53.237Z,7.32
2023-02-15T09:29:23.781Z,7.17
2023-02-15T09:31:54.692Z,7.26
2023-02-15T09:34:24.348Z,7.37
2023-02-15T09:36:53.364Z,7.40
2023-02-15T09:39:24.701Z,7.10
2023-02-15T09:42:34.304Z,7.06
2023-02-15T09:45:28.517Z,7.13
2023-02-15T09:48:09.951Z,7.06
2023-02-15T09:50:49.000Z,7.25
2023-02-15T09:53:40.805Z,7.32
2023-02-15T09:56:17.689Z,6.92
2023-02-15T09:58:56.779Z,7.05
2023-02-15T10:01:35.974Z,6.98
2023-02-15T10:04:23.175Z,6.94
2023-02-15T10:07:03.846Z,6.95
2023-02-15T10:09:46.920Z,6.98
2023-02-15T10:12:49.150Z,6.97
2023-02-15T10:15:26.323Z,7.05
2023-02-15T10:18:09.478Z,7.04
2023-02-15T10:20:49.510Z,7.06
2023-02-15T10:23:36.581Z,7.14
2023-02-15T10:26:15.097Z,7.07
2023-02-15T10:28:48.874Z,7.12
2023-02-15T10:31:35.738Z,7.29
2023-02-15T10:34:21.345Z,7.45
2023-02-15T10:37:19.359Z,7.42
2023-02-15T10:40:02.465Z,7.27
2023-02-15T10:42:39.353Z,7.21
2023-02-15T10:45:20.699Z,7.23
2023-02-15T10:48:09.205Z,7.17
2023-02-15T10:50:52.378Z,6.88
2023-02-15T10:54:00.308Z,7.26
2023-02-15T10:56:36.260Z,7.45
2023-02-15T10:59:22.726Z,7.39
2023-02-15T11:01:58.217Z,7.40
2023-02-15T11:04:42.317Z,7.22
2023-02-15T11:07:18.873Z,6.97
2023-02-15T11:09:51.206Z,7.12
2023-02-15T11:12:23.771Z,7.04
2023-02-15T11:14:58.009Z,7.03
2023-02-15T11:17:32.644Z,7.37
2023-02-15T11:20:09.063Z,7.43
2023-02-15T11:22:38.970Z,7.55
2023-02-15T11:25:20.003Z,7.55
2023-02-15T11:27:51.778Z,7.68
2023-02-15T11:30:25.338Z,7.60
2023-02-15T11:32:57.110Z,7.87
2023-02-15T11:35:30.462Z,7.85
2023-02-15T11:38:08.376Z,7.56
2023-02-15T11:40:43.859Z,7.72
2023-02-15T11:43:18.836Z,7.70
2023-02-15T11:45:48.424Z,7.72
2023-02-15T11:48:18.981Z,7.81
2023-02-15T11:50:48.068Z,7.66
2023-02-15T11:53:20.270Z,7.50
2023-02-15T11:55:51.956Z,7.46
2023-02-15T11:58:30.618Z,7.51
2023-02-15T12:01:03.302Z,7.47
2023-02-15T12:03:45.917Z,7.51
2023-02-15T12:06:21.903Z,7.44
2023-02-15T12:08:59.340Z,7.08
2023-02-15T12:11:35.197Z,7.46
2023-02-15T12:14:06.508Z,7.24
2023-02-15T12:16:43.818Z,7.46
2023-02-15T12:19:32.278Z,7.37
2023-02-15T12:22:03.282Z,7.57
2023-02-15T12:24:37.222Z,7.56
2023-02-15T12:27:08.606Z,7.44
2023-02-15T12:29:44.260Z,7.68
2023-02-15T12:32:19.246Z,7.52
2023-02-15T12:34:49.005Z,7.54
2023-02-15T12:37:23.890Z,7.39
2023-02-15T12:39:59.359Z,7.25
2023-02-15T12:42:30.341Z,6.98
2023-02-15T12:45:04.667Z,7.37
2023-02-15T12:47:33.734Z,7.47
2023-02-15T12:50:19.969Z,7.48
2023-02-15T12:52:50.463Z,7.38
2023-02-15T12:55:26.809Z,7.33
2023-02-15T12:58:09.772Z,7.30
2023-02-15T13:00:38.092Z,7.24
2023-02-15T13:03:07.102Z,7.53
2023-02-15T13:05:39.640Z,7.68
2023-02-15T13:08:14.803Z,7.59
2023-02-15T13:10:56.178Z,7.56
2023-02-15T13:13:28.337Z,7.57
2023-02-15T13:16:01.555Z,7.51
2023-02-15T13:18:34.982Z,7.41
2023-02-15T13:21:11.829Z,7.34
2023-02-15T13:23:42.005Z,7.37
2023-02-15T13:26:18.513Z,7.11
2023-02-15T13:28:49.865Z,7.43
2023-02-15T13:31:22.070Z,7.40
2023-02-15T13:33:54.446Z,7.64
2023-02-15T13:36:30.612Z,7.52
2023-02-15T13:39:09.666Z,7.50
2023-02-15T13:41:51.779Z,7.46
2023-02-15T13:44:29.615Z,7.61
2023-02-15T13:47:13.860Z,7.60
2023-02-15T13:49:53.229Z,7.71
2023-02-15T13:52:25.597Z,7.73
2023-02-15T13:55:20.410Z,7.76
2023-02-15T13:58:09.480Z,7.53
2023-02-15T14:00:47.669Z,7.65
2023-02-15T14:03:53.926Z,7.42
2023-02-15T14:06:50.775Z,7.59
2023-02-15T14:09:30.747Z,7.60
2023-02-15T14:12:19.083Z,7.67
2023-02-15T14:15:10.855Z,7.77
2023-02-15T14:17:51.300Z,7.84
2023-02-15T14:20:24.009Z,7.53
2023-02-15T14:23:02.099Z,7.73
2023-02-15T14:25:37.809Z,7.87
2023-02-15T14:28:12.344Z,7.80
2023-02-15T14:30:45.719Z,7.80
2023-02-15T14:33:35.205Z,7.71
2023-02-15T14:36:07.635Z,7.95
2023-02-15T14:38:50.668Z,7.89
2023-02-15T14:41:23.040Z,7.90
2023-02-15T14:44:02.702Z,8.01
2023-02-15T14:46:39.422Z,8.06
2023-02-15T14:49:12.556Z,8.05
2023-02-15T14:52:01.957Z,8.07
2023-02-15T14:54:58.932Z,8.08
2023-02-15T14:57:35.025Z,8.06
2023-02-15T15:00:35.373Z,8.00
2023-02-15T15:03:14.300Z,8.14
2023-02-15T15:06:00.173Z,7.95
2023-02-15T15:08:35.502Z,7.95
2023-02-15T15:11:43.482Z,8.12
2023-02-15T15:14:35.857Z,7.95
2023-02-15T15:17:05.342Z,7.74
2023-02-15T15:20:15.681Z,7.53
2023-02-15T15:22:45.219Z,7.55
2023-02-15T15:25:42.256Z,7.56
2023-02-15T15:28:48.680Z,7.53
2023-02-15T15:31:21.349Z,7.57
2023-02-15T15:34:20.031Z,7.63
2023-02-15T15:37:39.145Z,7.65
2023-02-15T15:40:41.192Z,7.68
2023-02-15T15:43:37.660Z,7.87
2023-02-15T15:46:33.013Z,7.96
2023-02-15T15:49:05.254Z,8.04
2023-02-15T15:51:34.895Z,8.05
2023-02-15T15:54:05.522Z,8.05
2023-02-15T15:56:38.301Z,8.11
2023-02-15T15:59:09.569Z,8.07
2023-02-15T16:01:42.261Z,8.17
2023-02-15T16:04:15.371Z,8.22
2023-02-15T16:06:45.973Z,8.10
2023-02-15T16:09:19.145Z,7.96
2023-02-15T16:11:52.073Z,8.05
2023-02-15T16:14:28.880Z,8.11
2023-02-15T16:16:59.742Z,8.15
2023-02-15T16:19:33.082Z,8.02
2023-02-15T16:22:03.705Z,8.06
2023-02-15T16:24:45.890Z,8.15
2023-02-15T16:27:35.067Z,8.14
2023-02-15T16:30:25.607Z,7.93
2023-02-15T16:32:56.645Z,7.95
2023-02-15T16:35:25.907Z,7.85
2023-02-15T16:37:57.595Z,8.13
2023-02-15T16:40:40.763Z,8.02
2023-02-15T16:43:18.585Z,7.69
2023-02-15T16:45:47.213Z,7.92
2023-02-15T16:48:20.760Z,8.07
2023-02-15T16:50:56.472Z,7.87
2023-02-15T16:53:27.998Z,7.93
2023-02-15T16:55:59.446Z,8.00
2023-02-15T16:58:39.644Z,7.99
2023-02-15T17:01:10.361Z,8.03
2023-02-15T17:03:39.731Z,7.93
2023-02-15T17:06:22.519Z,7.69
2023-02-15T17:08:51.255Z,7.93
2023-02-15T17:11:24.035Z,7.95
2023-02-15T17:14:23.179Z,8.02
2023-02-15T17:17:05.249Z,7.88
2023-02-15T17:19:35.538Z,7.83
2023-02-15T17:22:08.592Z,7.64
2023-02-15T17:24:39.975Z,7.64
2023-02-15T17:27:15.043Z,7.73
2023-02-15T17:29:48.662Z,7.89
2023-02-15T17:32:21.076Z,7.55
2023-02-15T17:35:04.373Z,7.71
2023-02-15T17:37:44.764Z,7.55
2023-02-15T17:40:22.073Z,7.84
2023-02-15T17:42:50.469Z,7.86
2023-02-15T17:45:21.134Z,7.97
2023-02-15T17:47:51.371Z,8.01
2023-02-15T17:50:23.698Z,7.84
2023-02-15T17:52:52.975Z,7.57
2023-02-15T17:55:43.608Z,7.93
2023-02-15T17:58:13.542Z,7.83
2023-02-15T18:01:03.258Z,7.68
2023-02-15T18:03:57.960Z,7.87
2023-02-15T18:06:44.403Z,7.85
2023-02-15T18:09:31.666Z,7.79
2023-02-15T18:12:00.127Z,7.51
2023-02-15T18:14:28.897Z,7.80
2023-02-15T18:16:59.064Z,7.48
2023-02-15T18:19:28.473Z,7.87
2023-02-15T18:21:58.090Z,7.62
2023-02-15T18:24:27.917Z,7.80
2023-02-15T18:26:56.181Z,7.80
2023-02-15T18:29:24.340Z,7.90
2023-02-15T18:31:55.753Z,7.88
2023-02-15T18:34:29.201Z,7.92
2023-02-15T18:36:59.485Z,7.91
2023-02-15T18:39:34.167Z,7.95
2023-02-15T18:42:02.854Z,7.98
2023-02-15T18:44:31.726Z,8.01
2023-02-15T18:47:00.064Z,8.05
2023-02-15T18:49:30.016Z,7.96
2023-02-15T18:51:58.870Z,7.76
2023-02-15T18:54:27.626Z,7.65
2023-02-15T18:56:59.217Z,7.58
2023-02-15T18:59:30.623Z,7.62
2023-02-15T19:02:00.661Z,7.61
2023-02-15T19:04:32.489Z,7.63
2023-02-15T19:07:01.145Z,7.72
2023-02-15T19:09:29.867Z,7.78
2023-02-15T19:11:58.489Z,7.79
2023-02-15T19:14:29.939Z,7.72
2023-02-15T19:17:00.095Z,7.57
2023-02-15T19:19:29.751Z,7.73
2023-02-15T19:21:58.098Z,7.83
2023-02-15T19:24:35.166Z,7.91
2023-02-15T19:27:04.345Z,7.91
2023-02-15T19:29:33.729Z,7.84
2023-02-15T19:32:02.460Z,7.79
2023-02-15T19:34:32.418Z,7.64
2023-02-15T19:37:00.759Z,7.66
2023-02-15T19:39:33.294Z,7.54
2023-02-15T19:42:01.816Z,7.49
2023-02-15T19:44:29.954Z,7.36
2023-02-15T19:47:01.333Z,7.43
2023-02-15T19:49:30.096Z,7.45
2023-02-15T19:52:01.262Z,7.43
2023-02-15T19:54:32.534Z,7.53
2023-02-15T19:57:01.543Z,7.42
2023-02-15T19:59:33.038Z,7.29
2023-02-15T20:02:02.066Z,7.42
2023-02-15T20:04:30.613Z,7.52
2023-02-15T20:07:03.468Z,7.50
2023-02-15T20:09:34.010Z,7.40
2023-02-15T20:12:02.632Z,7.32
2023-02-15T20:14:31.532Z,7.38
2023-02-15T20:16:59.724Z,7.42
2023-02-15T20:19:30.873Z,7.47
2023-02-15T20:22:02.996Z,7.37
2023-02-15T20:24:32.778Z,7.42
2023-02-15T20:27:01.284Z,7.39
2023-02-15T20:29:29.733Z,7.46
2023-02-15T20:32:01.765Z,7.31
2023-02-15T20:34:31.098Z,7.51
2023-02-15T20:37:00.901Z,7.46
2023-02-15T20:39:32.457Z,7.37
2023-02-15T20:42:01.069Z,7.27
2023-02-15T20:44:30.436Z,7.34
2023-02-15T20:47:03.787Z,7.25
2023-02-15T20:49:35.464Z,7.18
2023-02-15T20:52:18.929Z,7.09
2023-02-15T20:54:47.558Z,7.21
2023-02-15T20:57:17.482Z,7.37
2023-02-15T20:59:46.559Z,6.80
2023-02-15T21:02:21.028Z,7.19
2023-02-15T21:04:50.019Z,7.22
2023-02-15T21:07:21.783Z,7.20
2023-02-15T21:09:52.712Z,7.16
2023-02-15T21:12:22.769Z,7.15
2023-02-15T21:14:51.182Z,7.08
2023-02-15T21:17:20.551Z,7.19
2023-02-15T21:19:49.423Z,7.04
2023-02-15T21:22:21.824Z,7.00
2023-02-15T21:24:55.274Z,7.03
2023-02-15T21:27:24.003Z,7.07
2023-02-15T21:29:52.462Z,7.06
2023-02-15T21:32:22.262Z,6.63
2023-02-15T21:34:51.028Z,7.19
2023-02-15T21:37:30.926Z,6.98
2023-02-15T21:39:59.576Z,7.35
2023-02-15T21:42:46.740Z,7.21
2023-02-15T21:45:34.231Z,7.32
2023-02-15T21:48:03.006Z,7.33
2023-02-15T21:50:48.937Z,6.91
2023-02-15T21:53:23.846Z,7.10
2023-02-15T21:55:54.144Z,6.93
2023-02-15T21:58:24.523Z,7.10
2023-02-15T22:00:55.586Z,7.25
2023-02-15T22:03:24.392Z,7.03
2023-02-15T22:05:53.441Z,7.20
2023-02-15T22:08:24.347Z,7.21
2023-02-15T22:10:54.567Z,7.20
2023-02-15T22:13:28.526Z,7.39
2023-02-15T22:15:57.774Z,7.25
2023-02-15T22:18:28.912Z,7.22
2023-02-15T22:20:58.344Z,7.45
2023-02-15T22:23:27.997Z,7.33
2023-02-15T22:25:58.540Z,7.43
2023-02-15T22:28:34.264Z,7.53
2023-02-15T22:31:03.819Z,7.53
2023-02-15T22:33:35.694Z,7.25
2023-02-15T22:36:04.261Z,7.27
2023-02-15T22:38:34.406Z,7.46
2023-02-15T22:41:06.354Z,7.19
2023-02-15T22:43:40.828Z,7.30
2023-02-15T22:46:14.498Z,7.31
2023-02-15T22:48:44.167Z,7.43
2023-02-15T22:51:14.917Z,7.57
2023-02-15T22:53:45.056Z,7.50
2023-02-15T22:56:20.056Z,7.39
2023-02-15T22:58:50.597Z,7.46
2023-02-15T23:01:26.146Z,7.56
2023-02-15T23:03:55.126Z,7.55
2023-02-15T23:06:23.467Z,7.53
2023-02-15T23:08:53.616Z,7.58
2023-02-15T23:11:22.368Z,7.55
2023-02-15T23:13:50.977Z,7.15
2023-02-15T23:16:20.686Z,7.63
2023-02-15T23:18:50.528Z,7.63
2023-02-15T23:21:22.576Z,7.68
2023-02-15T23:23:54.651Z,7.75
2023-02-15T23:26:24.565Z,7.72
2023-02-15T23:28:53.889Z,7.53
2023-02-15T23:31:25.655Z,7.66
2023-02-15T23:33:54.843Z,7.67
2023-02-15T23:36:32.066Z,7.56
2023-02-15T23:39:26.255Z,7.59
2023-02-15T23:41:54.800Z,7.76
2023-02-15T23:44:23.930Z,7.71
2023-02-15T23:46:52.739Z,7.67
2023-02-15T23:49:21.574Z,7.76
2023-02-15T23:51:51.446Z,7.72
2023-02-15T23:54:23.838Z,7.61
2023-02-15T23:56:54.914Z,7.64
2023-02-15T23:59:25.980Z,7.49
